Time;durP1;ratioP1;P1;durP2;ratioP2;P2;SDS_P1;SDS_P2;PMS_P1;PMS_P2;Temp;Humidity;BMP_temperature;BMP_pressure;BME280_temperature;BME280_humidity;BME280_pressure;Samples;Min_cycle;Max_cycle;Signal;HPM_P1;HPM_P2
2023/07/26 00:00:41;;;;;;;6.18;1.77;;;;;;;;;;6284200;22;20041;-89
2023/07/26 00:03:16;;;;;;;4.63;1.65;;;;;;;;;;6284806;22;20012;-89
2023/07/26 00:05:52;;;;;;;6.47;1.70;;;;;;;;;;6257313;22;20016;-90
2023/07/26 00:08:20;;;;;;;5.05;1.88;;;;;;;;;;6284234;22;20476;-89
2023/07/26 00:10:59;;;;;;;4.97;1.92;;;;;;;;;;6281372;22;20043;-89
2023/07/26 00:13:25;;;;;;;3.58;1.70;;;;;;;;;;6254651;22;20069;-90
2023/07/26 00:15:55;;;;;;;4.32;1.73;;;;;;;;;;6254215;22;20209;-88
2023/07/26 00:18:40;;;;;;;3.97;1.80;;;;;;;;;;6255428;22;20014;-89
2023/07/26 00:21:10;;;;;;;5.15;1.92;;;;;;;;;;6276942;22;20010;-89
2023/07/26 00:23:37;;;;;;;4.22;1.70;;;;;;;;;;6252746;22;20017;-89
2023/07/26 00:26:07;;;;;;;2.63;1.60;;;;;;;;;;6280089;22;20097;-89
2023/07/26 00:28:34;;;;;;;3.08;2.05;;;;;;;;;;6251991;22;19999;-90
2023/07/26 00:31:04;;;;;;;2.95;1.65;;;;;;;;;;6254202;22;20094;-90
2023/07/26 00:33:30;;;;;;;7.97;1.77;;;;;;;;;;6279023;22;20055;-89
2023/07/26 00:35:58;;;;;;;3.10;1.52;;;;;;;;;;6254393;22;20073;-88
2023/07/26 00:41:10;;;;;;;;;;;;;;;;;;6250576;22;20364;-89
2023/07/26 00:43:38;;;;;;;4.75;1.92;;;;;;;;;;6280189;22;19899;-88
2023/07/26 00:46:08;;;;;;;3.70;1.80;;;;;;;;;;6280830;22;20027;-90
2023/07/26 00:48:37;;;;;;;3.13;1.83;;;;;;;;;;6283117;22;20011;-89
2023/07/26 00:51:04;;;;;;;3.80;1.52;;;;;;;;;;6286799;22;19993;-91
2023/07/26 00:53:39;;;;;;;5.57;1.70;;;;;;;;;;6286561;22;20493;-88
2023/07/26 00:56:05;;;;;;;4.43;1.60;;;;;;;;;;6285020;22;20362;-89
2023/07/26 00:58:32;;;;;;;5.45;1.23;;;;;;;;;;6264240;22;20038;-90
2023/07/26 01:01:20;;;;;;;2.55;1.45;;;;;;;;;;6289662;22;20003;-91
2023/07/26 01:03:52;;;;;;;6.70;1.65;;;;;;;;;;6287298;22;19996;-90
2023/07/26 01:06:31;;;;;;;3.83;1.77;;;;;;;;;;6287934;22;20003;-90
2023/07/26 01:09:06;;;;;;;2.63;1.70;;;;;;;;;;6287830;22;20007;-90
2023/07/26 01:11:32;;;;;;;10.10;2.42;;;;;;;;;;6285258;22;20106;-89
2023/07/26 01:14:10;;;;;;;2.30;1.58;;;;;;;;;;6278362;22;20477;-89
2023/07/26 01:16:37;;;;;;;3.63;1.58;;;;;;;;;;6280762;22;20027;-88
2023/07/26 01:19:04;;;;;;;6.20;2.00;;;;;;;;;;6278690;22;20032;-88
2023/07/26 01:21:32;;;;;;;3.10;2.03;;;;;;;;;;6278116;22;20004;-90
2023/07/26 01:23:58;;;;;;;6.82;2.15;;;;;;;;;;6281584;22;20010;-90
2023/07/26 01:26:26;;;;;;;5.43;1.92;;;;;;;;;;6254541;22;20034;-88
2023/07/26 01:28:53;;;;;;;8.05;2.70;;;;;;;;;;6256367;22;20023;-90
2023/07/26 01:31:21;;;;;;;7.03;2.45;;;;;;;;;;6281791;22;20016;-88
2023/07/26 01:33:51;;;;;;;16.70;2.67;;;;;;;;;;6283635;22;20034;-89
2023/07/26 01:36:26;;;;;;;10.63;2.67;;;;;;;;;;6284967;22;20228;-89
2023/07/26 01:39:05;;;;;;;7.40;2.23;;;;;;;;;;6284958;22;20011;-89
2023/07/26 01:41:36;;;;;;;4.78;1.90;;;;;;;;;;6284030;22;20000;-90
2023/07/26 01:44:03;;;;;;;7.35;2.17;;;;;;;;;;6285507;22;20018;-89
2023/07/26 01:46:29;;;;;;;5.22;2.05;;;;;;;;;;6284639;22;20018;-89
2023/07/26 01:49:06;;;;;;;5.43;2.03;;;;;;;;;;6259641;22;20026;-90
2023/07/26 01:51:32;;;;;;;9.88;2.47;;;;;;;;;;6284141;22;20015;-90
2023/07/26 01:54:08;;;;;;;4.50;1.98;;;;;;;;;;6259726;22;19991;-90
2023/07/26 01:56:34;;;;;;;;;;;;;;;;;;6283365;22;20038;-90
2023/07/26 01:59:05;;;;;;;6.10;1.98;;;;;;;;;;6280189;22;19969;-89
2023/07/26 02:04:24;;;;;;;7.65;2.28;;;;;;;;;;6274956;22;20441;-89
2023/07/26 02:06:54;;;;;;;7.03;2.50;;;;;;;;;;6250407;22;20492;-90
2023/07/26 02:09:20;;;;;;;3.42;1.58;;;;;;;;;;6254748;22;20032;-89
2023/07/26 02:11:57;;;;;;;6.55;2.50;;;;;;;;;;6280397;22;19992;-90
2023/07/26 02:14:24;;;;;;;6.55;2.40;;;;;;;;;;6251341;22;20019;-89
2023/07/26 02:16:53;;;;;;;8.32;2.50;;;;;;;;;;6255505;22;20233;-89
2023/07/26 02:19:32;;;;;;;10.38;2.25;;;;;;;;;;6283264;22;20003;-90
2023/07/26 02:22:28;;;;;;;5.25;1.85;;;;;;;;;;6259353;22;20008;-89
2023/07/26 02:24:54;;;;;;;10.20;2.50;;;;;;;;;;6282427;22;20004;-89
2023/07/26 02:27:24;;;;;;;10.68;2.42;;;;;;;;;;6258999;22;20352;-89
2023/07/26 02:30:09;;;;;;;4.65;1.98;;;;;;;;;;6281542;22;20065;-90
2023/07/26 02:32:38;;;;;;;6.72;2.72;;;;;;;;;;6283876;22;20004;-90
2023/07/26 02:35:06;;;;;;;9.85;2.70;;;;;;;;;;6259704;22;20003;-90
2023/07/26 02:37:32;;;;;;;18.90;2.95;;;;;;;;;;6283717;22;20355;-90
2023/07/26 02:40:00;;;;;;;10.57;2.53;;;;;;;;;;6285511;22;20040;-89
2023/07/26 02:42:27;;;;;;;11.07;3.00;;;;;;;;;;6286489;22;20011;-89
2023/07/26 02:45:09;;;;;;;10.32;2.90;;;;;;;;;;6256835;22;20008;-89
2023/07/26 02:47:38;;;;;;;9.30;2.70;;;;;;;;;;6284210;22;20014;-90
2023/07/26 02:50:08;;;;;;;8.90;2.75;;;;;;;;;;6283422;22;20393;-89
2023/07/26 02:52:36;;;;;;;10.07;2.85;;;;;;;;;;6284394;22;20449;-89
2023/07/26 02:55:02;;;;;;;11.20;3.40;;;;;;;;;;6283176;22;20489;-89
2023/07/26 02:57:34;;;;;;;7.80;2.75;;;;;;;;;;6258799;22;20008;-88
2023/07/26 03:00:03;;;;;;;5.28;2.35;;;;;;;;;;6260109;22;20087;-89
2023/07/26 03:02:35;;;;;;;6.20;2.33;;;;;;;;;;6260332;22;20019;-89
2023/07/26 03:05:02;;;;;;;4.70;2.28;;;;;;;;;;6256336;22;20007;-88
2023/07/26 03:07:30;;;;;;;5.50;2.40;;;;;;;;;;6258860;22;20008;-89
2023/07/26 03:10:00;;;;;;;7.13;2.53;;;;;;;;;;6258254;22;20449;-90
2023/07/26 03:12:30;;;;;;;6.85;2.67;;;;;;;;;;6282078;22;20022;-89
2023/07/26 03:14:57;;;;;;;7.70;2.97;;;;;;;;;;6254034;22;20015;-90
2023/07/26 03:17:33;;;;;;;6.45;2.67;;;;;;;;;;6282070;22;20004;-89
2023/07/26 03:20:00;;;;;;;11.00;3.08;;;;;;;;;;6282320;22;20011;-89
2023/07/26 03:22:30;;;;;;;6.95;2.85;;;;;;;;;;6256148;22;20434;-89
2023/07/26 03:24:57;;;;;;;11.15;3.10;;;;;;;;;;6256809;22;20015;-89
2023/07/26 03:27:33;;;;;;;9.48;3.17;;;;;;;;;;6255699;22;20143;-89
2023/07/26 03:30:00;;;;;;;12.50;3.25;;;;;;;;;;6257621;22;20023;-90
2023/07/26 03:32:26;;;;;;;7.97;3.47;;;;;;;;;;6280123;22;20008;-89
2023/07/26 03:34:52;;;;;;;5.72;3.13;;;;;;;;;;6255911;22;20015;-90
2023/07/26 03:37:19;;;;;;;11.73;3.25;;;;;;;;;;6227452;23;20013;-90
2023/07/26 03:39:45;;;;;;;11.82;3.80;;;;;;;;;;6250830;23;20023;-90
2023/07/26 03:42:11;;;;;;;6.30;3.55;;;;;;;;;;6226975;23;20038;-89
2023/07/26 03:44:38;;;;;;;7.75;3.60;;;;;;;;;;6201590;23;20012;-89
2023/07/26 03:47:05;;;;;;;7.82;3.10;;;;;;;;;;6226773;23;20004;-89
2023/07/26 03:49:31;;;;;;;14.02;3.25;;;;;;;;;;6201852;23;20035;-89
2023/07/26 03:52:00;;;;;;;6.40;3.17;;;;;;;;;;6226573;23;20655;-89
2023/07/26 03:54:28;;;;;;;9.45;3.63;;;;;;;;;;6227540;23;20115;-89
2023/07/26 03:56:55;;;;;;;9.00;3.00;;;;;;;;;;6227764;23;20063;-88
2023/07/26 03:59:45;;;;;;;6.40;3.47;;;;;;;;;;6201672;23;20419;-89
2023/07/26 04:02:20;;;;;;;8.95;3.05;;;;;;;;;;6209067;23;20000;-90
2023/07/26 04:04:49;;;;;;;5.03;3.22;;;;;;;;;;6226474;23;20014;-89
2023/07/26 04:07:18;;;;;;;16.83;3.28;;;;;;;;;;6202217;23;20058;-90
2023/07/26 04:09:50;;;;;;;5.72;2.80;;;;;;;;;;6226927;23;20055;-90
2023/07/26 04:12:55;;;;;;;8.30;3.28;;;;;;;;;;6202762;22;20065;-89
2023/07/26 04:15:27;;;;;;;7.90;3.60;;;;;;;;;;6266516;22;20007;-89
2023/07/26 04:17:56;;;;;;;10.15;3.45;;;;;;;;;;6258636;22;20023;-89
2023/07/26 04:20:25;;;;;;;6.35;3.08;;;;;;;;;;6284691;22;20380;-89
2023/07/26 04:23:01;;;;;;;8.93;3.20;;;;;;;;;;6256051;22;20019;-90
2023/07/26 04:25:28;;;;;;;12.50;3.75;;;;;;;;;;6255013;22;20015;-90
2023/07/26 04:27:56;;;;;;;8.45;3.60;;;;;;;;;;6255670;22;20586;-90
2023/07/26 04:30:28;;;;;;;6.80;3.15;;;;;;;;;;6280683;22;20007;-89
2023/07/26 04:32:55;;;;;;;7.15;3.60;;;;;;;;;;6276934;22;20689;-89
2023/07/26 04:35:33;;;;;;;6.05;3.22;;;;;;;;;;6284383;22;20065;-90
2023/07/26 04:37:59;;;;;;;9.18;3.10;;;;;;;;;;6285319;22;19999;-89
2023/07/26 04:40:28;;;;;;;8.90;3.53;;;;;;;;;;6260475;22;20000;-90
2023/07/26 04:42:55;;;;;;;8.63;3.30;;;;;;;;;;6284615;22;20311;-89
2023/07/26 04:45:54;;;;;;;8.02;3.08;;;;;;;;;;6254726;22;20011;-89
2023/07/26 04:48:26;;;;;;;5.78;2.78;;;;;;;;;;6203393;22;20063;-89
2023/07/26 04:51:03;;;;;;;7.45;3.33;;;;;;;;;;6284994;22;20032;-91
2023/07/26 04:53:32;;;;;;;12.93;4.03;;;;;;;;;;6258361;22;20522;-89
2023/07/26 04:56:01;;;;;;;7.78;3.47;;;;;;;;;;6255917;22;20011;-88
2023/07/26 04:58:29;;;;;;;7.00;3.40;;;;;;;;;;6282270;22;20011;-89
2023/07/26 05:00:55;;;;;;;11.07;4.07;;;;;;;;;;6256100;22;20008;-90
2023/07/26 05:03:22;;;;;;;6.60;3.60;;;;;;;;;;6256804;22;20018;-89
2023/07/26 05:05:50;;;;;;;9.10;4.10;;;;;;;;;;6256956;22;20349;-88
2023/07/26 05:08:23;;;;;;;9.80;2.72;;;;;;;;;;6285558;22;20007;-87
2023/07/26 05:11:01;;;;;;;6.93;2.95;;;;;;;;;;6292957;22;20012;-92
2023/07/26 05:14:03;;;;;;;9.23;3.28;;;;;;;;;;6230742;23;20028;-91
2023/07/26 05:20:12;;;;;;;;;;;;;;;;;;;;;
2023/07/26 05:22:40;;;;;;;6.35;2.42;;;;;;;;;;6252166;23;20321;-91
2023/07/26 05:25:29;;;;;;;;;;;;;;;;;;;;;
2023/07/26 05:31:17;;;;;;;4.72;2.55;;;;;;;;;;6254848;23;20008;-91
2023/07/26 05:33:44;;;;;;;6.82;2.35;;;;;;;;;;6216169;23;20012;-89
2023/07/26 05:36:18;;;;;;;5.60;2.53;;;;;;;;;;6238920;23;20052;-90
2023/07/26 05:38:47;;;;;;;7.68;2.28;;;;;;;;;;6240341;23;19996;-89
2023/07/26 05:41:22;;;;;;;4.93;2.50;;;;;;;;;;6230004;23;20015;-88
2023/07/26 05:43:58;;;;;;;3.93;2.20;;;;;;;;;;6233464;23;20008;-89
2023/07/26 05:46:26;;;;;;;4.70;2.35;;;;;;;;;;6229079;23;20008;-88
2023/07/26 05:48:58;;;;;;;5.88;2.47;;;;;;;;;;6231471;23;20004;-89
2023/07/26 05:51:34;;;;;;;8.88;2.40;;;;;;;;;;6229998;23;20012;-89
2023/07/26 05:54:09;;;;;;;;;;;;;;;;;;6231464;23;20076;-88
2023/07/26 05:56:48;;;;;;;;;;;;;;;;;;;;;
2023/07/26 05:59:30;;;;;;;5.70;1.92;;;;;;;;;;6265315;23;20000;-89
2023/07/26 06:01:58;;;;;;;6.22;1.98;;;;;;;;;;6228014;23;20438;-89
2023/07/26 06:04:33;;;;;;;9.10;2.20;;;;;;;;;;6228469;23;20036;-89
2023/07/26 06:07:10;;;;;;;;;;;;;;;;;;;;;
2023/07/26 06:09:43;;;;;;;6.72;2.58;;;;;;;;;;6255294;23;20043;-89
2023/07/26 06:12:15;;;;;;;7.60;2.38;;;;;;;;;;6270303;22;20043;-89
2023/07/26 06:14:57;;;;;;;4.05;2.00;;;;;;;;;;6283944;22;20011;-90
2023/07/26 06:17:26;;;;;;;5.75;2.67;;;;;;;;;;6286875;22;20011;-89
2023/07/26 06:19:55;;;;;;;7.88;1.98;;;;;;;;;;6284531;22;20004;-89
2023/07/26 06:22:21;;;;;;;5.30;2.22;;;;;;;;;;6260035;22;20031;-89
2023/07/26 06:25:11;;;;;;;4.00;2.00;;;;;;;;;;6259873;22;20003;-89
2023/07/26 06:27:55;;;;;;;6.28;1.73;;;;;;;;;;6262075;22;20447;-88
2023/07/26 06:33:53;;;;;;;5.68;2.10;;;;;;;;;;6146751;23;20053;-89
2023/07/26 06:36:29;;;;;;;4.22;2.13;;;;;;;;;;6136900;23;20017;-88
2023/07/26 06:38:58;;;;;;;2.72;1.85;;;;;;;;;;6281655;22;20334;-89
2023/07/26 06:41:28;;;;;;;9.50;1.90;;;;;;;;;;6260420;22;20076;-89
2023/07/26 06:43:55;;;;;;;2.92;1.85;;;;;;;;;;6259265;22;20028;-89
2023/07/26 06:46:24;;;;;;;4.20;2.00;;;;;;;;;;6283511;22;20003;-89
2023/07/26 06:49:05;;;;;;;3.58;1.48;;;;;;;;;;6253061;22;20557;-89
2023/07/26 06:51:32;;;;;;;5.72;1.70;;;;;;;;;;6281894;22;20007;-89
2023/07/26 06:54:12;;;;;;;3.92;2.13;;;;;;;;;;6257294;22;20458;-89
2023/07/26 06:56:43;;;;;;;4.28;1.80;;;;;;;;;;6285177;22;20015;-89
2023/07/26 06:59:12;;;;;;;5.32;2.05;;;;;;;;;;6283922;22;20446;-89
2023/07/26 07:01:38;;;;;;;4.15;2.03;;;;;;;;;;6283750;22;20354;-88
2023/07/26 07:04:05;;;;;;;2.97;1.60;;;;;;;;;;6284885;22;20385;-89
2023/07/26 07:06:34;;;;;;;6.13;2.17;;;;;;;;;;6287092;22;20027;-88
2023/07/26 07:09:05;;;;;;;4.07;1.77;;;;;;;;;;6287147;22;20027;-88
2023/07/26 07:11:41;;;;;;;3.95;1.60;;;;;;;;;;6264765;22;20688;-88
2023/07/26 07:14:07;;;;;;;;;;;;;;;;;;6232499;23;20340;-88
2023/07/26 07:16:39;;;;;;;2.22;1.45;;;;;;;;;;6233457;23;19958;-89
2023/07/26 07:19:13;;;;;;;2.33;1.30;;;;;;;;;;6233223;23;20028;-88
2023/07/26 07:21:44;;;;;;;1.95;1.27;;;;;;;;;;6207327;23;20091;-88
2023/07/26 07:24:11;;;;;;;2.08;1.40;;;;;;;;;;6208085;23;20008;-87
2023/07/26 07:26:41;;;;;;;3.95;1.30;;;;;;;;;;6207038;23;20004;-89
2023/07/26 07:29:17;;;;;;;1.80;1.48;;;;;;;;;;6230960;23;20116;-88
2023/07/26 07:31:45;;;;;;;1.92;1.50;;;;;;;;;;6231327;23;20349;-88
2023/07/26 07:34:17;;;;;;;4.30;1.55;;;;;;;;;;6230684;23;20496;-88
2023/07/26 07:36:50;;;;;;;4.35;1.38;;;;;;;;;;6205251;23;20008;-88
2023/07/26 07:39:20;;;;;;;3.10;1.40;;;;;;;;;;6227471;23;20004;-89
2023/07/26 07:41:53;;;;;;;2.17;1.25;;;;;;;;;;6203067;23;20008;-87
2023/07/26 07:44:19;;;;;;;3.85;1.30;;;;;;;;;;6230175;23;19993;-88
2023/07/26 07:46:49;;;;;;;4.00;1.17;;;;;;;;;;6230246;23;20011;-88
2023/07/26 07:49:18;;;;;;;2.38;1.27;;;;;;;;;;6205505;23;20008;-88
2023/07/26 07:51:45;;;;;;;3.20;1.58;;;;;;;;;;6204890;23;20043;-89
2023/07/26 07:54:29;;;;;;;1.70;1.05;;;;;;;;;;6203883;23;20012;-88
2023/07/26 07:57:07;;;;;;;3.10;1.40;;;;;;;;;;6228423;23;20004;-89
2023/07/26 07:59:33;;;;;;;2.90;1.50;;;;;;;;;;6205947;23;20438;-88
2023/07/26 08:02:21;;;;;;;2.67;1.30;;;;;;;;;;6202240;23;20018;-88
2023/07/26 08:04:50;;;;;;;1.55;1.05;;;;;;;;;;6224087;23;20008;-88
2023/07/26 08:07:18;;;;;;;1.52;0.70;;;;;;;;;;6196500;23;20028;-87
2023/07/26 08:10:00;;;;;;;1.73;1.10;;;;;;;;;;6223679;23;20013;-88
2023/07/26 08:12:47;;;;;;;1.10;0.93;;;;;;;;;;6194852;22;20023;-88
2023/07/26 08:15:16;;;;;;;2.13;1.30;;;;;;;;;;6236181;22;20023;-88
2023/07/26 08:20:35;;;;;;;4.40;1.67;;;;;;;;;;6263958;22;20079;-88
2023/07/26 08:26:15;;;;;;;4.68;1.20;;;;;;;;;;6218170;22;20018;-89
2023/07/26 08:28:45;;;;;;;2.28;1.27;;;;;;;;;;6238716;22;20448;-89
2023/07/26 08:31:12;;;;;;;2.88;1.45;;;;;;;;;;6234779;22;20444;-88
2023/07/26 08:33:41;;;;;;;1.75;1.45;;;;;;;;;;6259508;22;20577;-90
2023/07/26 08:36:12;;;;;;;1.60;1.23;;;;;;;;;;6233996;22;20007;-89
2023/07/26 08:41:28;;;;;;;2.35;1.40;;;;;;;;;;6222088;22;20056;-89
2023/07/26 08:44:06;;;;;;;1.88;1.33;;;;;;;;;;6268199;22;20003;-89
2023/07/26 08:46:33;;;;;;;0.88;0.88;;;;;;;;;;6290401;22;20613;-89
2023/07/26 08:52:00;;;;;;;1.65;1.00;;;;;;;;;;6287647;22;20019;-89
2023/07/26 08:54:30;;;;;;;1.27;1.08;;;;;;;;;;6288528;22;20008;-90
2023/07/26 08:57:36;;;;;;;2.63;1.30;;;;;;;;;;6291322;22;20034;-90
2023/07/26 09:00:11;;;;;;;1.23;1.13;;;;;;;;;;6146278;23;20006;-88
2023/07/26 09:02:49;;;;;;;4.43;1.83;;;;;;;;;;6145087;23;20459;-90
2023/07/26 09:05:27;;;;;;;2.55;1.40;;;;;;;;;;6147853;23;19994;-89
2023/07/26 09:08:14;;;;;;;2.20;1.60;;;;;;;;;;6202525;22;20055;-89
2023/07/26 09:10:44;;;;;;;3.70;2.22;;;;;;;;;;6293837;22;19995;-90
2023/07/26 09:16:01;;;;;;;2.67;1.92;;;;;;;;;;6296490;22;20023;-89
2023/07/26 09:18:37;;;;;;;6.60;1.60;;;;;;;;;;6268571;22;20018;-89
2023/07/26 09:27:15;;;;;;;3.63;2.08;;;;;;;;;;6298837;22;20093;-88
2023/07/26 09:30:28;;;;;;;;;;;;;;;;;;;;;
2023/07/26 09:38:55;;;;;;;5.78;2.55;;;;;;;;;;6291130;22;20137;-90
2023/07/26 09:41:41;;;;;;;4.97;2.58;;;;;;;;;;6277946;22;20062;-89
2023/07/26 09:44:17;;;;;;;3.58;1.52;;;;;;;;;;6297219;22;20011;-89
2023/07/26 09:46:58;;;;;;;4.20;2.30;;;;;;;;;;6295538;22;20011;-88
2023/07/26 09:49:43;;;;;;;;;;;;;;;;;;;;;
2023/07/26 09:52:28;;;;;;;5.10;2.20;;;;;;;;;;6298771;22;20000;-89
2023/07/26 09:55:04;;;;;;;6.47;2.03;;;;;;;;;;6227007;22;20012;-89
2023/07/26 10:00:53;;;;;;;6.05;2.33;;;;;;;;;;6234788;23;20063;-88
2023/07/26 10:06:58;;;;;;;2.30;1.83;;;;;;;;;;6166674;23;20043;-89
2023/07/26 10:09:39;;;;;;;3.53;2.13;;;;;;;;;;6272462;22;20014;-89
2023/07/26 10:12:06;;;;;;;9.48;2.10;;;;;;;;;;6223241;22;19996;-89
2023/07/26 10:14:35;;;;;;;6.18;1.83;;;;;;;;;;6272433;22;20029;-89
2023/07/26 10:17:07;;;;;;;10.48;1.73;;;;;;;;;;6295880;22;20004;-87
2023/07/26 10:19:59;;;;;;;;;;;;;;;;;;;;;
2023/07/26 10:22:36;;;;;;;2.30;1.63;;;;;;;;;;6298457;22;20023;-89
2023/07/26 10:25:06;;;;;;;3.10;1.63;;;;;;;;;;6289255;22;20007;-88
2023/07/26 10:27:33;;;;;;;4.93;2.10;;;;;;;;;;6264168;22;20008;-90
2023/07/26 10:30:10;;;;;;;3.60;1.88;;;;;;;;;;6292193;22;20020;-89
2023/07/26 10:32:48;;;;;;;4.43;2.10;;;;;;;;;;6268961;22;19992;-89
2023/07/26 10:38:18;;;;;;;2.38;1.58;;;;;;;;;;6294706;22;20046;-89
2023/07/26 10:40:48;;;;;;;2.45;1.40;;;;;;;;;;6273010;22;20025;-90
2023/07/26 10:46:27;;;;;;;2.95;1.65;;;;;;;;;;6235964;23;20052;-90
2023/07/26 10:48:56;;;;;;;3.97;1.48;;;;;;;;;;6205915;22;20008;-88
2023/07/26 10:51:58;;;;;;;1.92;1.40;;;;;;;;;;6210034;23;20000;-89
2023/07/26 10:54:44;;;;;;;1.52;1.35;;;;;;;;;;6206205;23;20012;-89
2023/07/26 10:57:25;;;;;;;2.88;1.50;;;;;;;;;;6229363;23;20015;-89
2023/07/26 11:00:04;;;;;;;3.40;1.83;;;;;;;;;;6206310;23;20001;-89
2023/07/26 11:02:53;;;;;;;6.95;1.63;;;;;;;;;;6250678;22;20045;-89
2023/07/26 11:05:29;;;;;;;7.45;2.20;;;;;;;;;;6288292;22;20095;-89
2023/07/26 11:08:00;;;;;;;5.40;2.03;;;;;;;;;;6260639;22;20030;-89
2023/07/26 11:10:33;;;;;;;5.78;2.17;;;;;;;;;;6284630;22;20031;-88
2023/07/26 11:13:05;;;;;;;4.18;1.63;;;;;;;;;;6288041;22;20015;-88
2023/07/26 11:16:04;;;;;;;3.17;1.55;;;;;;;;;;6293498;22;19999;-89
2023/07/26 11:18:39;;;;;;;3.50;1.27;;;;;;;;;;6146202;23;20141;-88
2023/07/26 11:21:06;;;;;;;8.75;1.58;;;;;;;;;;6290127;22;20010;-89
2023/07/26 11:23:34;;;;;;;5.18;1.70;;;;;;;;;;6288863;22;20033;-89
2023/07/26 11:26:01;;;;;;;2.13;1.20;;;;;;;;;;6257691;22;20022;-89
2023/07/26 11:28:31;;;;;;;6.90;1.98;;;;;;;;;;6258246;22;20539;-89
2023/07/26 11:30:59;;;;;;;3.30;0.90;;;;;;;;;;6285208;22;20018;-89
2023/07/26 11:33:29;;;;;;;4.50;0.90;;;;;;;;;;6292975;22;20042;-90
2023/07/26 11:35:59;;;;;;;3.28;1.08;;;;;;;;;;6288928;22;20087;-89
2023/07/26 11:38:26;;;;;;;3.90;1.17;;;;;;;;;;6278051;22;20299;-90
2023/07/26 11:40:56;;;;;;;4.57;1.42;;;;;;;;;;6281090;22;20015;-89
2023/07/26 11:43:29;;;;;;;8.07;1.27;;;;;;;;;;6281561;22;20353;-90
2023/07/26 11:45:58;;;;;;;2.97;1.08;;;;;;;;;;6282497;22;20380;-89
2023/07/26 11:48:53;;;;;;;3.53;1.33;;;;;;;;;;6282056;22;20012;-90
2023/07/26 11:51:19;;;;;;;4.05;1.05;;;;;;;;;;6285229;22;20014;-89
2023/07/26 11:53:52;;;;;;;1.10;1.00;;;;;;;;;;6259690;22;20007;-89
2023/07/26 11:56:42;;;;;;;3.83;1.38;;;;;;;;;;6262880;22;20016;-90
2023/07/26 11:59:09;;;;;;;1.88;1.23;;;;;;;;;;6283088;22;20025;-89
2023/07/26 12:04:11;;;;;;;;;;;;;;;;;;6318522;22;20022;-88
2023/07/26 12:06:37;;;;;;;1.42;0.85;;;;;;;;;;6284318;22;19898;-89
2023/07/26 12:09:12;;;;;;;2.40;1.33;;;;;;;;;;6318148;22;20003;-88
2023/07/26 12:11:43;;;;;;;2.35;1.55;;;;;;;;;;6262537;22;20050;-87
2023/07/26 12:14:16;;;;;;;3.55;1.50;;;;;;;;;;6309817;22;20003;-89
2023/07/26 12:16:49;;;;;;;2.13;1.42;;;;;;;;;;6319507;22;19996;-88
2023/07/26 12:19:28;;;;;;;2.70;1.38;;;;;;;;;;6292192;22;20350;-89
2023/07/26 12:21:56;;;;;;;6.75;1.40;;;;;;;;;;6288434;22;20018;-89
2023/07/26 12:24:27;;;;;;;3.72;1.60;;;;;;;;;;6265858;22;20011;-89
2023/07/26 12:27:03;;;;;;;2.55;1.52;;;;;;;;;;6263787;22;20407;-89
2023/07/26 12:29:40;;;;;;;2.85;1.05;;;;;;;;;;6235788;22;20041;-89
2023/07/26 12:32:13;;;;;;;5.53;1.70;;;;;;;;;;6264647;22;20011;-89
2023/07/26 12:34:42;;;;;;;6.43;1.27;;;;;;;;;;6267280;22;20294;-90
2023/07/26 12:37:12;;;;;;;5.15;1.33;;;;;;;;;;6264700;22;20068;-89
2023/07/26 12:39:48;;;;;;;3.13;1.23;;;;;;;;;;6289695;22;20058;-89
2023/07/26 12:42:24;;;;;;;4.38;1.60;;;;;;;;;;6265111;22;20022;-89
2023/07/26 12:44:55;;;;;;;5.60;1.83;;;;;;;;;;6266060;22;20014;-88
2023/07/26 12:47:24;;;;;;;4.00;1.63;;;;;;;;;;6262860;22;20023;-89
2023/07/26 12:50:17;;;;;;;5.43;2.00;;;;;;;;;;6293541;22;19999;-90
2023/07/26 12:53:06;;;;;;;;;;;;;;;;;;;;;
2023/07/26 12:58:24;;;;;;;4.38;1.80;;;;;;;;;;6315097;22;20087;-88
2023/07/26 13:01:00;;;;;;;6.07;2.30;;;;;;;;;;6292551;22;20003;-89
2023/07/26 13:03:29;;;;;;;3.63;1.75;;;;;;;;;;6296826;22;20011;-89
2023/07/26 13:05:59;;;;;;;4.00;2.20;;;;;;;;;;6288225;22;20070;-90
2023/07/26 13:08:51;;;;;;;5.47;2.33;;;;;;;;;;6284667;22;20008;-89
2023/07/26 13:11:21;;;;;;;4.78;2.03;;;;;;;;;;6282158;22;20091;-90
2023/07/26 13:13:47;;;;;;;5.47;1.92;;;;;;;;;;6256923;22;20019;-90
2023/07/26 13:16:21;;;;;;;3.17;1.75;;;;;;;;;;6284630;22;20061;-90
2023/07/26 13:18:54;;;;;;;3.83;1.88;;;;;;;;;;6286601;22;19992;-90
2023/07/26 13:21:21;;;;;;;4.00;1.92;;;;;;;;;;6262301;22;20012;-90
2023/07/26 13:23:57;;;;;;;4.35;1.70;;;;;;;;;;6285454;22;20012;-90
2023/07/26 13:26:23;;;;;;;2.90;1.60;;;;;;;;;;6291557;22;20042;-90
2023/07/26 13:29:00;;;;;;;5.10;1.60;;;;;;;;;;6288357;22;19996;-90
2023/07/26 13:31:39;;;;;;;5.18;1.30;;;;;;;;;;6286643;22;20008;-90
2023/07/26 13:34:19;;;;;;;2.30;1.35;;;;;;;;;;6252628;23;20361;-90
2023/07/26 13:37:06;;;;;;;7.55;1.83;;;;;;;;;;6196958;23;20076;-91
2023/07/26 13:39:39;;;;;;;3.63;1.90;;;;;;;;;;6226110;23;20028;-91
2023/07/26 13:45:18;;;;;;;2.25;1.30;;;;;;;;;;6140351;23;20041;-91
2023/07/26 13:47:48;;;;;;;4.90;1.67;;;;;;;;;;6134282;23;20111;-91
2023/07/26 13:50:23;;;;;;;2.08;1.42;;;;;;;;;;6195084;23;20094;-91
2023/07/26 13:53:14;;;;;;;6.22;1.80;;;;;;;;;;6230947;23;20260;-91
2023/07/26 13:55:43;;;;;;;3.58;1.80;;;;;;;;;;6229430;23;20004;-91
2023/07/26 13:58:10;;;;;;;5.28;1.60;;;;;;;;;;6199673;23;20012;-91
2023/07/26 14:03:45;;;;;;;4.93;1.60;;;;;;;;;;6227354;23;20054;-91
2023/07/26 14:06:15;;;;;;;5.97;1.90;;;;;;;;;;6280829;22;20019;-91
2023/07/26 14:08:41;;;;;;;2.13;1.52;;;;;;;;;;6256456;22;20030;-90
2023/07/26 14:11:39;;;;;;;4.10;1.80;;;;;;;;;;6285186;22;20008;-91
2023/07/26 14:14:06;;;;;;;2.50;1.60;;;;;;;;;;6258020;22;20026;-90
2023/07/26 14:16:32;;;;;;;3.63;1.52;;;;;;;;;;6255369;22;20011;-90
2023/07/26 14:19:05;;;;;;;4.38;1.88;;;;;;;;;;6286616;22;20015;-90
2023/07/26 14:21:31;;;;;;;2.72;1.40;;;;;;;;;;6284268;22;20004;-91
2023/07/26 14:24:02;;;;;;;2.30;1.45;;;;;;;;;;6286433;22;20022;-90
2023/07/26 14:26:34;;;;;;;2.55;1.63;;;;;;;;;;6282770;22;20000;-91
2023/07/26 14:29:05;;;;;;;2.47;1.40;;;;;;;;;;6288767;22;20014;-91
2023/07/26 14:31:39;;;;;;;2.03;1.40;;;;;;;;;;6263552;22;20012;-90
2023/07/26 14:34:08;;;;;;;3.45;1.33;;;;;;;;;;6284558;22;20011;-91
2023/07/26 14:36:42;;;;;;;1.67;1.35;;;;;;;;;;6287909;22;20086;-92
2023/07/26 14:39:18;;;;;;;2.45;1.30;;;;;;;;;;6257714;22;20434;-92
2023/07/26 14:41:48;;;;;;;4.75;1.83;;;;;;;;;;6288185;22;20000;-91
2023/07/26 14:44:19;;;;;;;5.20;1.50;;;;;;;;;;6208196;22;20018;-90
2023/07/26 14:46:45;;;;;;;2.78;1.40;;;;;;;;;;6287834;22;20008;-91
2023/07/26 14:49:22;;;;;;;4.25;1.70;;;;;;;;;;6284802;22;20019;-90
2023/07/26 14:51:48;;;;;;;;;;;;;;;;;;6289341;22;20012;-91
2023/07/26 14:54:18;;;;;;;3.28;1.65;;;;;;;;;;6285970;22;19910;-90
2023/07/26 14:57:00;;;;;;;3.60;1.50;;;;;;;;;;6288209;22;20015;-90
2023/07/26 14:59:40;;;;;;;4.65;1.70;;;;;;;;;;6285594;22;20497;-89
2023/07/26 15:02:11;;;;;;;2.67;1.63;;;;;;;;;;6285380;22;20000;-90
2023/07/26 15:04:42;;;;;;;3.30;1.73;;;;;;;;;;6296492;22;20035;-90
2023/07/26 15:07:12;;;;;;;2.47;1.48;;;;;;;;;;6290440;22;20063;-90
2023/07/26 15:10:08;;;;;;;3.30;1.58;;;;;;;;;;6266367;22;20011;-90
2023/07/26 15:12:43;;;;;;;2.55;1.60;;;;;;;;;;6137693;23;20020;-90
2023/07/26 15:15:18;;;;;;;3.03;1.73;;;;;;;;;;6138243;23;20013;-89
2023/07/26 15:17:44;;;;;;;2.30;1.50;;;;;;;;;;6278860;22;20317;-91
2023/07/26 15:20:16;;;;;;;5.40;1.67;;;;;;;;;;6292723;22;20317;-91
2023/07/26 15:22:48;;;;;;;3.97;1.55;;;;;;;;;;6289787;22;20011;-90
2023/07/26 15:25:14;;;;;;;2.70;1.63;;;;;;;;;;6290238;22;20027;-90
2023/07/26 15:27:48;;;;;;;2.70;1.90;;;;;;;;;;6264194;22;20405;-91
2023/07/26 15:30:27;;;;;;;3.42;1.60;;;;;;;;;;6267086;22;20007;-90
2023/07/26 15:32:54;;;;;;;3.55;1.80;;;;;;;;;;6289936;22;20007;-90
2023/07/26 15:35:32;;;;;;;7.68;1.63;;;;;;;;;;6319027;22;20003;-90
2023/07/26 15:38:00;;;;;;;3.05;2.10;;;;;;;;;;6288786;22;19999;-90
2023/07/26 15:40:26;;;;;;;8.90;3.47;;;;;;;;;;6264829;22;20013;-90
2023/07/26 15:42:59;;;;;;;6.50;2.00;;;;;;;;;;6289687;22;20015;-90
2023/07/26 15:45:26;;;;;;;8.13;2.22;;;;;;;;;;6290087;22;20013;-90
2023/07/26 15:47:54;;;;;;;4.40;2.00;;;;;;;;;;6288844;22;20065;-90
2023/07/26 15:50:36;;;;;;;3.22;1.88;;;;;;;;;;6264947;22;20352;-90
2023/07/26 15:53:03;;;;;;;3.92;1.77;;;;;;;;;;6263607;22;20045;-90
2023/07/26 15:55:39;;;;;;;3.97;1.80;;;;;;;;;;6254005;22;20011;-91
2023/07/26 15:58:07;;;;;;;3.65;1.70;;;;;;;;;;6262696;22;20007;-91
2023/07/26 16:00:34;;;;;;;5.00;2.40;;;;;;;;;;6264837;22;20012;-96
2023/07/26 16:03:03;;;;;;;5.85;2.25;;;;;;;;;;6260261;22;20008;-87
2023/07/26 16:05:29;;;;;;;5.57;1.63;;;;;;;;;;6255576;22;20026;-88
2023/07/26 16:07:55;;;;;;;4.25;1.98;;;;;;;;;;6256451;22;20061;-88
2023/07/26 16:10:21;;;;;;;8.48;2.22;;;;;;;;;;6254731;22;20307;-87
2023/07/26 16:12:48;;;;;;;7.43;2.20;;;;;;;;;;6251667;22;20012;-88
2023/07/26 16:15:14;;;;;;;3.80;1.77;;;;;;;;;;6279646;22;20012;-87
2023/07/26 16:17:40;;;;;;;6.90;2.50;;;;;;;;;;6250460;22;20008;-86
2023/07/26 16:20:06;;;;;;;3.65;2.00;;;;;;;;;;6276724;22;19999;-86
2023/07/26 16:22:33;;;;;;;5.25;2.25;;;;;;;;;;6277585;22;20030;-87
2023/07/26 16:25:05;;;;;;;3.22;1.90;;;;;;;;;;6253491;22;20039;-85
2023/07/26 16:27:31;;;;;;;7.97;2.10;;;;;;;;;;6278262;22;20333;-86
2023/07/26 16:29:57;;;;;;;7.43;2.08;;;;;;;;;;6276652;22;20000;-86